Time;durP1;ratioP1;P1;durP2;ratioP2;P2;SDS_P1;SDS_P2;PMS_P1;PMS_P2;Temp;Humidity;BMP_temperature;BMP_pressure;BME280_temperature;BME280_humidity;BME280_pressure;Samples;Min_cycle;Max_cycle;Signal;HPM_P1;HPM_P2
2022/09/21 00:00:35;;;;;;;12.45;3.78;;;;;;;23.51;38.97;102750.44;5012396;28;20033;-77
2022/09/21 00:03:00;;;;;;;7.30;2.75;;;;;;;23.22;39.69;102738.94;5023853;28;20389;-77
2022/09/21 00:05:26;;;;;;;9.05;3.50;;;;;;;23.37;39.30;102748.22;5022510;28;20029;-78
2022/09/21 00:07:51;;;;;;;5.75;2.60;;;;;;;23.34;39.59;102748.31;5031468;28;20037;-78
2022/09/21 00:10:19;;;;;;;8.95;3.67;;;;;;;23.67;38.86;102740.06;5033473;28;20163;-77
2022/09/21 00:12:47;;;;;;;10.35;3.75;;;;;;;23.45;39.44;102745.28;5011802;28;20112;-77
2022/09/21 00:15:16;;;;;;;6.30;2.50;;;;;;;23.81;38.58;102747.56;5017838;28;20478;-77
2022/09/21 00:17:42;;;;;;;6.93;2.40;;;;;;;23.80;38.70;102752.06;5031987;28;20033;-77
2022/09/21 00:20:08;;;;;;;7.20;2.50;;;;;;;23.54;39.26;102751.16;5030743;28;20128;-77
2022/09/21 00:22:34;;;;;;;7.10;2.35;;;;;;;23.60;38.70;102743.88;5031931;28;20090;-78
2022/09/21 00:25:02;;;;;;;8.38;2.78;;;;;;;23.32;39.71;102750.19;5027729;28;20065;-78
2022/09/21 00:27:29;;;;;;;7.43;2.50;;;;;;;23.19;39.87;102744.34;5031685;28;20029;-77
2022/09/21 00:29:56;;;;;;;12.60;2.60;;;;;;;23.38;39.72;102749.94;5032022;28;20021;-77
2022/09/21 00:32:23;;;;;;;7.80;2.40;;;;;;;23.31;39.64;102748.44;5031673;28;20086;-78
2022/09/21 00:34:50;;;;;;;8.07;2.70;;;;;;;23.32;39.70;102747.50;5018040;28;20112;-77
2022/09/21 00:37:16;;;;;;;5.03;2.83;;;;;;;23.32;39.73;102739.50;5011910;28;20036;-78
2022/09/21 00:39:41;;;;;;;7.90;2.22;;;;;;;23.13;40.29;102740.09;5019635;28;20401;-78
2022/09/21 00:42:17;;;;;;;7.53;2.50;;;;;;;23.22;40.02;102738.94;5030946;28;20033;-78
2022/09/21 00:44:42;;;;;;;4.20;2.25;;;;;;;23.71;39.04;102731.03;5031085;28;20520;-78
2022/09/21 00:47:15;;;;;;;4.38;2.80;;;;;;;23.28;39.80;102737.88;5011878;28;20030;-78
2022/09/21 00:49:43;;;;;;;7.95;2.55;;;;;;;23.27;39.84;102736.13;5010843;28;20022;-77
2022/09/21 00:52:10;;;;;;;5.57;2.53;;;;;;;23.30;39.61;102741.34;5011888;28;20034;-77
2022/09/21 00:54:48;;;;;;;10.95;3.10;;;;;;;23.11;40.50;102733.94;5013986;28;20104;-78
2022/09/21 00:57:16;;;;;;;9.73;3.10;;;;;;;22.91;40.48;102729.25;5059912;28;20036;-78
2022/09/21 00:59:44;;;;;;;5.15;2.50;;;;;;;23.03;40.10;102727.97;5011886;28;20025;-77
2022/09/21 01:02:10;;;;;;;8.20;2.72;;;;;;;22.94;40.40;102728.28;5013271;28;20021;-77
2022/09/21 01:04:37;;;;;;;5.43;2.45;;;;;;;22.71;40.81;102737.88;5030415;28;20033;-77
2022/09/21 01:07:11;;;;;;;5.20;2.53;;;;;;;22.78;40.66;102734.09;5016891;28;20083;-77
2022/09/21 01:09:38;;;;;;;8.20;2.95;;;;;;;23.03;39.75;102733.31;5030660;28;20084;-77
2022/09/21 01:12:34;;;;;;;7.57;2.92;;;;;;;22.97;40.49;102733.50;5031635;28;20583;-77
2022/09/21 01:15:33;;;;;;;7.32;3.35;;;;;;;22.67;41.20;102730.91;5029106;28;20492;-77
2022/09/21 01:18:19;;;;;;;9.77;3.30;;;;;;;22.63;40.81;102734.59;5012566;28;20045;-78
2022/09/21 01:21:10;;;;;;;7.35;3.13;;;;;;;22.31;41.55;102723.06;5048546;28;20042;-77
2022/09/21 01:24:13;;;;;;;5.82;3.10;;;;;;;22.47;41.42;102724.38;5034279;28;20037;-77
2022/09/21 01:26:42;;;;;;;6.97;3.58;;;;;;;22.77;40.67;102732.34;5034319;28;20493;-78
2022/09/21 01:29:48;;;;;;;8.93;3.38;;;;;;;22.63;40.90;102735.44;5034744;28;20045;-77
2022/09/21 01:32:19;;;;;;;6.28;3.80;;;;;;;21.98;42.06;102742.66;5045108;28;20060;-78
2022/09/21 01:35:15;;;;;;;10.38;3.97;;;;;;;22.06;41.88;102738.91;5016534;28;20052;-78
2022/09/21 01:37:50;;;;;;;9.80;4.07;;;;;;;21.82;42.27;102742.19;5039471;28;20041;-77
2022/09/21 01:40:20;;;;;;;9.23;3.58;;;;;;;21.70;42.69;102747.84;5015186;28;20045;-78
2022/09/21 01:42:48;;;;;;;9.45;3.45;;;;;;;21.84;42.23;102743.03;5028791;28;20544;-77
2022/09/21 01:45:19;;;;;;;8.13;3.15;;;;;;;22.02;41.69;102743.41;5030372;28;20041;-78
2022/09/21 01:47:48;;;;;;;5.72;3.45;;;;;;;21.85;41.87;102739.44;5015334;28;20021;-78
2022/09/21 01:50:15;;;;;;;7.93;3.50;;;;;;;21.59;42.52;102739.28;5015132;28;20021;-78
2022/09/21 01:52:57;;;;;;;6.80;3.70;;;;;;;21.50;42.67;102740.34;5014393;28;20026;-78
2022/09/21 01:55:31;;;;;;;7.50;3.95;;;;;;;21.40;43.14;102739.72;5016972;28;20084;-78
2022/09/21 01:58:13;;;;;;;9.45;3.78;;;;;;;21.67;41.76;102742.63;5059665;28;20385;-78
2022/09/21 02:00:44;;;;;;;9.65;3.78;;;;;;;21.61;41.92;102740.09;5034501;28;20228;-78
2022/09/21 02:03:37;;;;;;;9.75;3.60;;;;;;;21.22;43.29;102734.88;5047810;28;20033;-78
2022/09/21 02:06:04;;;;;;;4.80;3.28;;;;;;;21.59;42.16;102733.97;5025641;28;20086;-78
2022/09/21 02:08:31;;;;;;;7.47;3.97;;;;;;;21.29;42.94;102733.78;5034466;28;20029;-78
2022/09/21 02:11:00;;;;;;;6.75;4.55;;;;;;;21.26;42.87;102736.53;5034403;28;20025;-78
2022/09/21 02:13:32;;;;;;;6.50;3.53;;;;;;;21.24;43.04;102739.25;5034033;28;20033;-78
2022/09/21 02:16:06;;;;;;;9.13;3.97;;;;;;;21.29;43.28;102739.13;5024673;28;20482;-78
2022/09/21 02:19:10;;;;;;;5.78;3.60;;;;;;;21.10;43.44;102731.63;5015574;28;20022;-78
2022/09/21 02:22:14;;;;;;;6.10;3.42;;;;;;;21.14;43.40;102735.94;5014839;28;20026;-78
2022/09/21 02:24:46;;;;;;;9.90;3.90;;;;;;;21.10;43.34;102736.94;5047007;28;20112;-78
2022/09/21 02:27:45;;;;;;;5.18;3.28;;;;;;;21.29;42.64;102742.63;5013732;28;20036;-78
2022/09/21 02:30:22;;;;;;;6.17;3.10;;;;;;;21.16;42.91;102742.09;5019215;28;20099;-78
2022/09/21 02:33:25;;;;;;;6.47;3.40;;;;;;;20.97;43.57;102738.13;5034027;28;20036;-78
2022/09/21 02:36:00;;;;;;;7.40;3.55;;;;;;;21.12;43.12;102739.53;5028945;28;20032;-78
2022/09/21 02:38:45;;;;;;;7.90;3.95;;;;;;;20.96;43.52;102737.22;5033413;28;20114;-78
2022/09/21 02:41:37;;;;;;;6.38;3.40;;;;;;;21.04;43.32;102731.75;5033147;28;20155;-78
2022/09/21 02:44:28;;;;;;;6.87;4.00;;;;;;;20.96;43.23;102734.56;5029131;28;20053;-78
2022/09/21 02:47:02;;;;;;;5.87;3.17;;;;;;;20.91;43.49;102730.28;5046829;28;20026;-78
2022/09/21 02:49:34;;;;;;;4.93;3.53;;;;;;;20.98;42.90;102726.59;5013173;28;20497;-78
2022/09/21 02:52:06;;;;;;;3.67;3.00;;;;;;;20.78;43.27;102719.94;5013976;28;20079;-78
2022/09/21 02:54:34;;;;;;;8.57;3.55;;;;;;;20.54;44.01;102725.78;5014461;28;20264;-78
2022/09/21 02:57:01;;;;;;;6.63;3.40;;;;;;;20.63;43.82;102730.88;5014258;28;20026;-78
2022/09/21 02:59:27;;;;;;;5.13;3.23;;;;;;;21.06;42.33;102727.28;5030750;28;20026;-78
2022/09/21 03:01:54;;;;;;;5.30;3.40;;;;;;;20.78;43.57;102722.59;5014212;28;20474;-78
2022/09/21 03:04:20;;;;;;;6.77;3.37;;;;;;;20.75;43.66;102732.44;5013629;28;20022;-78
2022/09/21 03:06:46;;;;;;;9.53;3.53;;;;;;;20.44;44.01;102725.09;5026762;28;20497;-77
2022/09/21 03:09:11;;;;;;;5.03;2.90;;;;;;;20.61;43.83;102728.28;5012777;28;20029;-77
2022/09/21 03:11:37;;;;;;;7.83;3.60;;;;;;;20.59;43.97;102729.22;5013589;28;20112;-77
2022/09/21 03:14:07;;;;;;;6.83;3.57;;;;;;;20.34;44.12;102732.41;5032084;28;20025;-77
2022/09/21 03:16:35;;;;;;;6.83;3.40;;;;;;;20.27;44.11;102736.09;5031816;28;20612;-78
2022/09/21 03:19:01;;;;;;;8.17;4.07;;;;;;;20.33;44.25;102743.91;5033286;28;20025;-77
2022/09/21 03:21:26;;;;;;;5.00;4.40;;;;;;;20.25;44.34;102745.84;5033166;28;20025;-77
2022/09/21 03:23:51;;;;;;;5.83;3.10;;;;;;;20.17;44.31;102738.94;5032206;28;20497;-77
2022/09/21 03:26:21;;;;;;;6.00;3.00;;;;;;;20.77;42.52;102739.47;5030816;28;20539;-77
2022/09/21 03:28:49;;;;;;;3.60;2.80;;;;;;;20.37;43.52;102739.44;5032740;28;20021;-77
2022/09/21 03:31:14;;;;;;;6.03;2.53;;;;;;;20.69;42.68;102741.44;5032875;28;20032;-77
2022/09/21 03:33:40;;;;;;;5.27;2.30;;;;;;;20.46;43.38;102740.09;5032202;28;20017;-77
2022/09/21 03:36:05;;;;;;;4.53;2.87;;;;;;;20.33;43.67;102743.91;5021470;28;20120;-77
2022/09/21 03:38:31;;;;;;;3.30;2.67;;;;;;;20.14;44.23;102744.31;5033345;28;20021;-77
2022/09/21 03:40:57;;;;;;;7.33;3.53;;;;;;;20.33;43.47;102754.53;5022757;28;20389;-77
2022/09/21 03:43:23;;;;;;;4.97;3.00;;;;;;;19.99;44.07;102755.25;5045794;28;20053;-77
2022/09/21 03:45:48;;;;;;;5.00;2.87;;;;;;;19.86;44.63;102759.88;5018922;28;20021;-77
2022/09/21 03:48:14;;;;;;;6.17;3.27;;;;;;;19.55;45.37;102759.53;5031967;28;20527;-77
2022/09/21 03:50:40;;;;;;;5.20;2.83;;;;;;;19.70;45.42;102759.28;5031843;28;20075;-77
2022/09/21 03:53:06;;;;;;;3.87;3.13;;;;;;;20.02;44.33;102755.16;5030248;28;20021;-76
2022/09/21 03:55:32;;;;;;;3.73;2.90;;;;;;;19.92;44.42;102757.13;5016229;28;20465;-77
2022/09/21 03:57:58;;;;;;;4.23;3.27;;;;;;;20.15;43.91;102754.03;5025454;28;20026;-77
2022/09/21 04:00:23;;;;;;;19.53;4.93;;;;;;;20.28;42.98;102751.13;5012462;28;20035;-77
2022/09/21 04:02:49;;;;;;;4.60;3.10;;;;;;;19.86;44.33;102762.53;5046909;28;20024;-77
2022/09/21 04:05:15;;;;;;;6.10;2.93;;;;;;;20.03;43.93;102751.63;5031692;28;20032;-76
2022/09/21 04:07:42;;;;;;;5.07;2.90;;;;;;;20.19;43.36;102753.97;5013954;28;20018;-77
2022/09/21 04:10:12;;;;;;;9.40;3.10;;;;;;;19.77;44.28;102762.66;5012310;28;20374;-77
2022/09/21 04:12:42;;;;;;;4.60;3.80;;;;;;;19.89;44.11;102753.66;5013093;28;20498;-77
2022/09/21 04:15:18;;;;;;;3.80;3.17;;;;;;;20.12;43.37;102751.41;5012217;28;20474;-77
2022/09/21 04:17:44;;;;;;;8.40;3.90;;;;;;;19.86;44.02;102748.41;5011657;28;20033;-77
2022/09/21 04:20:10;;;;;;;6.93;3.30;;;;;;;19.88;44.36;102752.78;5011616;28;20084;-77
2022/09/21 04:22:35;;;;;;;5.93;3.67;;;;;;;19.95;44.17;102753.53;5058496;28;20485;-77
2022/09/21 04:25:02;;;;;;;6.03;3.20;;;;;;;20.09;43.53;102746.19;5032414;28;20025;-77
2022/09/21 04:27:28;;;;;;;6.47;3.37;;;;;;;19.89;43.92;102758.94;5030918;28;20032;-77
2022/09/21 04:29:53;;;;;;;6.20;3.23;;;;;;;19.87;44.26;102751.03;5018984;28;20034;-77
2022/09/21 04:32:19;;;;;;;5.93;3.50;;;;;;;19.76;44.34;102751.19;5029242;28;20473;-77
2022/09/21 04:34:44;;;;;;;9.00;3.43;;;;;;;19.68;44.36;102745.16;5031382;28;20017;-77
2022/09/21 04:37:12;;;;;;;7.63;3.67;;;;;;;19.92;44.03;102750.94;5030932;28;20040;-77
2022/09/21 04:39:38;;;;;;;5.87;3.60;;;;;;;19.92;43.85;102758.88;5032792;28;20032;-77
2022/09/21 04:42:04;;;;;;;7.23;3.80;;;;;;;20.11;43.69;102755.00;5031173;28;20037;-78
2022/09/21 04:44:30;;;;;;;6.17;3.60;;;;;;;20.12;43.64;102751.41;5016954;28;20045;-78
2022/09/21 04:46:59;;;;;;;7.57;4.10;;;;;;;20.17;43.43;102749.56;5013659;28;20036;-78
2022/09/21 04:49:24;;;;;;;4.77;3.70;;;;;;;20.15;44.09;102756.69;5026232;28;20032;-78
2022/09/21 04:51:50;;;;;;;5.67;3.80;;;;;;;20.22;43.63;102751.25;5012659;28;20017;-78
2022/09/21 04:54:15;;;;;;;6.80;4.10;;;;;;;20.16;43.77;102758.41;5011596;28;20513;-78
2022/09/21 04:56:41;;;;;;;5.23;3.60;;;;;;;20.25;43.42;102757.38;5022380;28;20110;-78
2022/09/21 04:59:06;;;;;;;7.83;4.10;;;;;;;20.20;43.69;102758.38;5024647;28;20021;-78
2022/09/21 05:01:32;;;;;;;6.30;3.13;;;;;;;20.35;43.32;102747.44;5031609;28;20029;-78
2022/09/21 05:04:00;;;;;;;8.07;3.27;;;;;;;20.25;43.72;102756.47;5030626;28;20026;-78
2022/09/21 05:06:27;;;;;;;5.83;3.33;;;;;;;20.28;43.49;102756.44;5032856;28;20033;-78
2022/09/21 05:11:37;;;;;;;8.57;3.80;;;;;;;20.20;43.39;102753.06;5012976;28;20508;-77
2022/09/21 05:14:03;;;;;;;10.97;3.70;;;;;;;20.24;43.10;102754.75;5011014;28;20022;-77
2022/09/21 05:16:29;;;;;;;9.20;3.83;;;;;;;20.07;43.45;102753.31;5021137;28;20034;-77
2022/09/21 05:18:54;;;;;;;7.53;3.87;;;;;;;20.25;42.65;102759.13;5029024;28;20037;-77
2022/09/21 05:21:20;;;;;;;10.30;3.87;;;;;;;19.93;43.31;102752.69;5032148;28;20026;-77
2022/09/21 05:23:45;;;;;;;6.47;3.87;;;;;;;20.00;42.94;102756.97;5013477;28;20490;-77
2022/09/21 05:26:11;;;;;;;7.20;4.00;;;;;;;19.78;44.08;102761.78;5017793;28;20095;-77
2022/09/21 05:28:36;;;;;;;7.07;4.17;;;;;;;19.47;44.40;102763.19;5030025;28;20044;-77
2022/09/21 05:31:33;;;;;;;9.20;4.07;;;;;;;19.46;44.89;102764.09;5030250;28;20079;-77
2022/09/21 05:34:09;;;;;;;11.20;4.30;;;;;;;19.57;44.28;102763.03;5012545;28;20037;-77
2022/09/21 05:37:01;;;;;;;14.80;5.13;;;;;;;19.52;45.12;102759.59;5010776;28;20061;-77
2022/09/21 05:39:27;;;;;;;10.20;4.50;;;;;;;19.47;44.93;102755.22;5012502;28;20121;-77
2022/09/21 05:41:53;;;;;;;10.60;4.70;;;;;;;19.85;43.87;102758.13;5010969;28;20030;-77
2022/09/21 05:44:20;;;;;;;9.83;4.60;;;;;;;19.67;44.70;102760.19;5021418;28;20129;-77
2022/09/21 05:47:01;;;;;;;10.67;4.60;;;;;;;19.59;45.11;102761.22;5020822;28;20716;-77
2022/09/21 05:50:04;;;;;;;7.37;4.20;;;;;;;20.02;43.84;102759.59;5011143;28;20505;-77
2022/09/21 05:52:48;;;;;;;;;;;;;;;20.16;43.95;102763.72;5004290;28;20038;-77
2022/09/21 05:55:33;;;;;;;8.57;4.23;;;;;;;19.89;45.03;102769.56;5044433;28;19920;-77
2022/09/21 05:58:01;;;;;;;13.03;5.10;;;;;;;20.14;44.19;102762.91;5028297;28;20026;-78
2022/09/21 06:00:57;;;;;;;8.60;4.40;;;;;;;20.38;43.87;102775.72;5028669;28;20116;-77
2022/09/21 06:03:31;;;;;;;10.37;4.87;;;;;;;20.11;44.64;102784.19;5029562;28;20034;-77
2022/09/21 06:05:57;;;;;;;11.87;7.57;;;;;;;20.11;44.77;102784.19;5025618;28;20033;-77
2022/09/21 06:08:24;;;;;;;6.47;4.63;;;;;;;20.19;44.99;102775.19;5036130;28;20026;-77
2022/09/21 06:10:50;;;;;;;10.97;4.60;;;;;;;20.48;44.38;102786.13;5035188;28;20481;-77
2022/09/21 06:13:16;;;;;;;10.27;4.40;;;;;;;20.46;44.63;102787.91;5032330;28;20030;-77
2022/09/21 06:15:41;;;;;;;7.40;4.70;;;;;;;20.60;44.22;102778.78;5024940;28;20052;-77
2022/09/21 06:18:08;;;;;;;7.27;4.20;;;;;;;20.61;44.39;102785.84;5046656;28;20498;-77
2022/09/21 06:20:34;;;;;;;7.97;4.00;;;;;;;20.43;45.08;102793.28;5013785;28;20025;-77
2022/09/21 06:23:17;;;;;;;10.95;4.60;;;;;;;20.88;44.02;102780.84;5016310;28;20026;-78
2022/09/21 06:25:42;;;;;;;8.70;4.70;;;;;;;20.91;44.31;102783.44;5020874;28;20359;-78
2022/09/21 06:28:10;;;;;;;10.00;4.97;;;;;;;20.93;44.11;102777.19;5020420;28;20116;-77
2022/09/21 06:30:38;;;;;;;7.23;4.43;;;;;;;21.10;43.86;102779.47;5034295;28;20028;-77
2022/09/21 06:33:04;;;;;;;8.20;4.95;;;;;;;21.22;43.91;102777.41;5053261;28;20025;-77
2022/09/21 06:35:32;;;;;;;8.32;4.25;;;;;;;21.24;43.34;102778.25;5041256;28;20025;-77
2022/09/21 06:37:59;;;;;;;10.43;4.47;;;;;;;21.16;43.69;102779.31;5033625;28;20367;-77
2022/09/21 06:40:28;;;;;;;9.00;4.67;;;;;;;21.19;43.50;102781.03;5033168;28;20029;-78
2022/09/21 06:42:58;;;;;;;9.23;4.80;;;;;;;21.21;43.55;102775.66;5019026;28;20449;-77
2022/09/21 06:45:25;;;;;;;7.32;4.32;;;;;;;21.06;43.58;102788.44;5024215;28;20034;-77
2022/09/21 06:47:51;;;;;;;9.25;4.20;;;;;;;21.27;42.89;102780.84;5033150;28;20017;-77
2022/09/21 06:50:16;;;;;;;9.23;4.80;;;;;;;21.18;43.42;102787.25;5032098;28;20095;-77
2022/09/21 06:52:42;;;;;;;13.32;4.65;;;;;;;21.10;43.88;102787.44;5030823;28;20022;-78
2022/09/21 06:55:09;;;;;;;10.82;4.80;;;;;;;21.33;43.54;102786.00;5018198;28;20553;-77
2022/09/21 06:57:36;;;;;;;9.05;4.85;;;;;;;21.55;43.47;102790.81;5034215;28;20037;-78
2022/09/21 07:00:01;;;;;;;10.35;5.13;;;;;;;21.84;42.94;102788.28;5032754;28;20087;-77
2022/09/21 07:02:26;;;;;;;12.60;6.10;;;;;;;22.01;42.96;102789.63;5014963;28;20034;-78
2022/09/21 07:04:52;;;;;;;14.23;6.10;;;;;;;21.76;42.68;102784.97;5013729;28;20022;-78
2022/09/21 07:07:17;;;;;;;14.45;6.32;;;;;;;22.37;41.96;102792.19;5014907;28;20025;-78
2022/09/21 07:09:43;;;;;;;14.25;6.35;;;;;;;22.46;42.16;102786.59;5012941;28;20445;-78
2022/09/21 07:12:08;;;;;;;10.05;5.32;;;;;;;22.80;41.88;102788.22;5017101;28;20470;-78
2022/09/21 07:14:34;;;;;;;7.53;4.43;;;;;;;22.92;41.43;102788.78;5032805;28;20057;-78
2022/09/21 07:16:59;;;;;;;9.82;4.82;;;;;;;22.83;40.72;102793.47;5032862;28;20680;-78
2022/09/21 07:19:25;;;;;;;11.63;5.05;;;;;;;22.63;41.13;102793.22;5033917;28;20537;-78
2022/09/21 07:21:54;;;;;;;7.95;4.03;;;;;;;22.82;40.82;102789.06;5032515;28;20691;-78
2022/09/21 07:24:19;;;;;;;7.00;3.38;;;;;;;22.72;40.58;102782.25;5027169;28;20452;-78
2022/09/21 07:26:45;;;;;;;13.15;4.60;;;;;;;22.95;40.18;102788.69;5013985;28;20117;-78
2022/09/21 07:29:10;;;;;;;5.47;3.83;;;;;;;23.13;40.64;102777.44;5032432;28;20025;-77
2022/09/21 07:31:36;;;;;;;11.88;4.85;;;;;;;22.97;40.39;102787.72;5032277;28;20057;-78
2022/09/21 07:34:01;;;;;;;6.43;3.83;;;;;;;23.24;39.95;102785.09;5032326;28;20087;-77
2022/09/21 07:36:26;;;;;;;13.02;4.03;;;;;;;23.37;40.23;102788.25;5032853;28;20040;-78
2022/09/21 07:38:52;;;;;;;8.27;3.75;;;;;;;23.35;40.21;102788.28;5033584;28;20032;-78
2022/09/21 07:41:18;;;;;;;13.57;4.28;;;;;;;23.28;40.22;102791.22;5032965;28;20116;-78
2022/09/21 07:43:44;;;;;;;5.75;3.38;;;;;;;23.90;39.86;102789.16;5032913;28;20535;-77
2022/09/21 07:46:11;;;;;;;6.55;3.28;;;;;;;24.94;38.59;102781.69;5029572;28;20030;-77
2022/09/21 07:48:37;;;;;;;6.57;3.10;;;;;;;26.38;34.74;102780.91;5033536;28;20486;-77
2022/09/21 07:51:05;;;;;;;5.93;2.70;;;;;;;27.38;33.00;102772.53;5031920;28;20025;-78
2022/09/21 07:53:35;;;;;;;6.20;2.55;;;;;;;27.19;32.27;102778.81;5021272;28;20022;-78
2022/09/21 07:56:06;;;;;;;6.88;2.30;;;;;;;26.74;32.43;102785.50;5013998;28;20025;-78
2022/09/21 08:01:16;;;;;;;4.80;1.73;;;;;;;26.70;32.98;102778.56;5014441;28;20128;-78
2022/09/21 08:03:42;;;;;;;7.25;1.67;;;;;;;25.49;34.37;102780.38;5034265;28;20477;-78
2022/09/21 08:06:08;;;;;;;4.82;2.03;;;;;;;24.92;35.04;102783.53;5031357;28;20017;-79
2022/09/21 08:08:34;;;;;;;6.07;2.28;;;;;;;25.40;35.04;102785.19;5032126;28;20057;-79
2022/09/21 08:11:07;;;;;;;6.80;2.30;;;;;;;25.04;35.65;102787.53;5031577;28;20022;-79
2022/09/21 08:13:32;;;;;;;10.93;2.80;;;;;;;25.49;35.01;102781.22;5031989;28;20030;-78
2022/09/21 08:15:59;;;;;;;8.05;2.42;;;;;;;26.12;34.28;102790.13;5032062;28;20083;-79
2022/09/21 08:18:26;;;;;;;5.60;2.83;;;;;;;25.99;34.66;102784.44;5029710;28;20727;-79
2022/09/21 08:20:56;;;;;;;6.93;2.33;;;;;;;25.58;34.98;102785.31;5026375;28;20083;-79
2022/09/21 08:23:21;;;;;;;4.90;2.40;;;;;;;25.80;35.12;102801.34;5021036;28;20022;-78
2022/09/21 08:25:47;;;;;;;7.55;2.30;;;;;;;26.48;34.33;102792.09;5021055;28;20128;-78
2022/09/21 08:28:13;;;;;;;8.05;2.13;;;;;;;25.93;34.64;102796.28;5033569;28;20029;-78
2022/09/21 08:30:39;;;;;;;5.70;2.35;;;;;;;25.99;34.90;102797.81;5039423;28;21219;-78
2022/09/21 08:33:05;;;;;;;8.68;2.95;;;;;;;26.78;33.96;102799.63;5043046;28;20082;-78
2022/09/21 08:35:31;;;;;;;9.07;2.78;;;;;;;26.39;34.15;102799.63;5029674;28;20025;-78
2022/09/21 08:37:56;;;;;;;7.43;2.25;;;;;;;26.11;34.91;102805.34;5034557;28;20029;-79
2022/09/21 08:40:22;;;;;;;4.55;2.25;;;;;;;26.12;33.85;102809.78;5034960;28;20477;-78
2022/09/21 08:43:10;;;;;;;8.25;2.22;;;;;;;25.40;34.54;102797.66;5028260;28;20122;-78
2022/09/21 08:45:42;;;;;;;7.45;1.50;;;;;;;26.24;33.43;102798.50;5021521;28;20030;-79
2022/09/21 08:48:20;;;;;;;13.98;2.70;;;;;;;26.07;34.52;102803.75;5027693;28;20022;-78
2022/09/21 08:50:55;;;;;;;6.00;1.50;;;;;;;26.26;32.79;102805.59;5011629;28;20057;-78
2022/09/21 08:53:33;;;;;;;8.85;2.13;;;;;;;26.97;32.24;102804.97;5011956;28;20661;-78
2022/09/21 08:56:00;;;;;;;1.98;1.33;;;;;;;26.11;33.51;102805.34;5017231;28;20057;-78
2022/09/21 08:58:28;;;;;;;10.52;1.75;;;;;;;26.20;33.34;102810.31;5031280;28;20258;-78
2022/09/21 09:01:04;;;;;;;6.50;1.40;;;;;;;26.14;33.06;102810.56;5020757;28;20033;-77
2022/09/21 09:03:48;;;;;;;6.13;1.42;;;;;;;26.44;32.09;102810.09;5017189;28;20124;-78
2022/09/21 09:07:00;;;;;;;5.38;1.40;;;;;;;26.11;31.93;102808.03;5026101;28;20029;-79
2022/09/21 09:09:57;;;;;;;4.53;1.20;;;;;;;25.31;33.09;102814.09;5011210;28;20312;-78
2022/09/21 09:12:47;;;;;;;5.50;1.10;;;;;;;25.89;31.79;102811.63;4990957;28;20096;-78
2022/09/21 09:15:18;;;;;;;6.55;0.90;;;;;;;26.60;30.58;102821.00;5032154;28;20044;-78
2022/09/21 09:17:53;;;;;;;6.03;1.40;;;;;;;26.87;30.86;102810.81;5036448;28;20041;-78
2022/09/21 09:20:23;;;;;;;2.38;0.80;;;;;;;27.16;29.88;102813.88;5017032;28;20025;-77
2022/09/21 09:23:27;;;;;;;4.20;1.00;;;;;;;25.84;32.16;102820.81;5054754;28;20081;-77
2022/09/21 09:25:58;;;;;;;9.00;1.38;;;;;;;27.13;30.11;102819.38;5018268;28;20069;-78
2022/09/21 09:28:33;;;;;;;3.45;0.88;;;;;;;27.06;30.36;102823.31;5018288;28;20103;-76
2022/09/21 09:31:05;;;;;;;5.40;0.93;;;;;;;26.50;30.47;102823.25;5010513;28;20041;-77
2022/09/21 09:33:56;;;;;;;3.50;1.20;;;;;;;26.33;31.39;102817.78;5014610;28;20452;-77
2022/09/21 09:36:27;;;;;;;4.20;1.20;;;;;;;26.44;30.47;102820.81;5021158;28;20140;-77
2022/09/21 09:39:00;;;;;;;7.13;1.23;;;;;;;27.93;29.01;102819.84;5032440;28;20021;-77
2022/09/21 09:41:45;;;;;;;4.82;1.45;;;;;;;26.22;30.57;102819.13;5034126;28;20519;-76
2022/09/21 09:44:16;;;;;;;4.25;1.15;;;;;;;27.04;29.72;102819.84;5034462;28;20059;-77
2022/09/21 09:47:06;;;;;;;9.35;1.63;;;;;;;27.45;29.63;102810.69;5034588;28;20044;-76
2022/09/21 09:50:09;;;;;;;5.40;1.50;;;;;;;26.66;29.44;102817.16;5018144;28;20549;-78
2022/09/21 09:52:35;;;;;;;5.93;1.40;;;;;;;25.93;31.72;102808.84;5034233;28;20025;-77
2022/09/21 09:55:18;;;;;;;6.25;1.27;;;;;;;26.24;31.44;102811.91;5045595;28;20033;-77
2022/09/21 09:57:45;;;;;;;5.63;1.20;;;;;;;26.21;31.28;102812.06;5027076;28;20112;-77
2022/09/21 10:00:18;;;;;;;4.45;1.35;;;;;;;26.05;31.18;102811.00;5033997;28;20022;-77
2022/09/21 10:02:54;;;;;;;6.63;1.48;;;;;;;26.86;29.94;102809.06;5043639;28;20029;-77
2022/09/21 10:05:23;;;;;;;7.18;1.42;;;;;;;26.47;31.44;102812.63;5021647;28;20056;-77
2022/09/21 10:07:49;;;;;;;5.28;1.73;;;;;;;26.73;30.82;102816.81;5023487;28;20029;-77
2022/09/21 10:10:20;;;;;;;8.80;1.50;;;;;;;27.42;29.36;102811.72;5034060;28;20033;-77
2022/09/21 10:12:47;;;;;;;8.02;1.80;;;;;;;26.08;31.19;102821.56;5037211;28;20041;-77
2022/09/21 10:15:12;;;;;;;10.45;1.88;;;;;;;26.53;30.18;102817.72;5032813;28;20037;-77
2022/09/21 10:17:38;;;;;;;4.57;1.40;;;;;;;27.23;29.97;102812.63;5022158;28;20046;-77
2022/09/21 10:20:06;;;;;;;5.57;1.48;;;;;;;27.58;28.64;102807.31;5034251;28;20038;-77
2022/09/21 10:22:33;;;;;;;6.13;1.13;;;;;;;27.34;28.42;102813.88;5032879;28;20405;-77
2022/09/21 10:25:00;;;;;;;6.43;1.08;;;;;;;27.37;29.59;102809.28;5026060;28;20030;-77
2022/09/21 10:27:34;;;;;;;3.22;1.27;;;;;;;27.82;28.50;102819.53;5033531;28;20147;-78
2022/09/21 10:30:00;;;;;;;4.43;1.10;;;;;;;26.49;29.48;102816.13;5027830;28;20029;-77
2022/09/21 10:32:29;;;;;;;4.35;1.33;;;;;;;26.04;29.18;102810.09;5032454;28;20040;-78
2022/09/21 10:35:16;;;;;;;8.95;1.42;;;;;;;25.90;31.00;102802.66;5034959;28;20190;-77
2022/09/21 10:37:47;;;;;;;7.85;1.23;;;;;;;27.03;29.51;102804.69;5033036;28;20048;-77
2022/09/21 10:40:18;;;;;;;4.05;1.45;;;;;;;26.36;29.87;102804.22;5031321;28;20027;-77
2022/09/21 10:42:45;;;;;;;6.93;1.15;;;;;;;27.20;28.69;102795.78;5031585;28;20119;-77
2022/09/21 10:45:19;;;;;;;5.18;0.90;;;;;;;26.91;28.64;102801.66;5034992;28;20033;-77
2022/09/21 10:47:49;;;;;;;4.82;1.00;;;;;;;26.50;29.72;102803.59;5013279;28;20081;-77
2022/09/21 10:50:30;;;;;;;7.13;0.75;;;;;;;26.10;29.72;102792.88;5019069;28;20041;-77
2022/09/21 10:53:22;;;;;;;8.30;1.20;;;;;;;26.37;29.09;102795.25;5028836;28;20046;-77
2022/09/21 10:55:47;;;;;;;6.50;1.07;;;;;;;26.75;28.40;102790.78;5013784;28;20524;-77
2022/09/21 10:58:14;;;;;;;3.50;1.45;;;;;;;27.00;27.35;102788.75;5029858;28;20285;-77
2022/09/21 11:00:45;;;;;;;2.90;0.80;;;;;;;26.79;28.18;102791.53;5015518;28;20033;-77
2022/09/21 11:03:31;;;;;;;4.90;0.70;;;;;;;26.46;28.76;102794.84;5033730;28;20370;-77
2022/09/21 11:06:04;;;;;;;2.75;0.65;;;;;;;26.51;28.04;102797.28;5060494;28;20090;-77
2022/09/21 11:08:37;;;;;;;3.10;0.80;;;;;;;26.36;27.79;102798.88;5032247;28;20133;-77
2022/09/21 11:11:24;;;;;;;2.50;0.65;;;;;;;27.11;27.40;102786.41;5031176;28;20124;-77
2022/09/21 11:14:32;;;;;;;2.78;0.50;;;;;;;26.98;26.88;102787.94;5034162;28;20109;-77
2022/09/21 11:17:11;;;;;;;2.05;0.63;;;;;;;26.34;25.84;102790.03;5018624;28;20040;-77
2022/09/21 11:20:07;;;;;;;3.95;0.68;;;;;;;26.92;25.39;102792.66;5027112;28;20021;-77
2022/09/21 11:23:11;;;;;;;2.20;0.75;;;;;;;27.77;25.47;102785.72;5022496;28;20393;-76
2022/09/21 11:25:54;;;;;;;9.32;1.33;;;;;;;27.65;27.21;102785.50;5043913;28;20033;-77
2022/09/21 11:28:42;;;;;;;6.18;0.75;;;;;;;27.68;27.17;102779.97;5031402;28;20018;-77
2022/09/21 11:31:31;;;;;;;2.83;0.80;;;;;;;27.12;27.16;102784.56;5045204;28;20026;-76
2022/09/21 11:34:06;;;;;;;4.63;1.10;;;;;;;27.99;26.20;102784.59;5033086;28;20496;-76
2022/09/21 11:36:44;;;;;;;5.10;0.70;;;;;;;27.91;26.81;102785.00;5026426;28;20036;-76
2022/09/21 11:39:34;;;;;;;4.88;0.90;;;;;;;28.24;25.54;102784.16;5017982;28;20028;-76
2022/09/21 11:42:03;;;;;;;2.72;0.77;;;;;;;28.35;25.93;102774.66;5022271;28;20033;-76
2022/09/21 11:44:48;;;;;;;4.57;0.80;;;;;;;28.40;25.31;102772.59;5029624;28;20050;-75
2022/09/21 11:47:29;;;;;;;4.75;1.00;;;;;;;27.87;25.72;102775.34;5032471;28;20095;-76
2022/09/21 11:50:03;;;;;;;2.33;0.40;;;;;;;26.46;26.55;102783.22;5030112;28;20103;-76
2022/09/21 11:52:53;;;;;;;2.53;0.73;;;;;;;27.25;26.98;102772.28;5030709;28;20111;-75